KABQ/ABQ METAR and TAF weather

Enter ICAO airport designator
Station Type Date Time Source
KABQ METAR 2020/08/11 00:52 UTC NOAA

KABQ 110052Z 32005KT 10SM BKN140 34/01 A3008 RMK AO2 SLP087 T03440006


Station Type Date Time Source
KABQ Decoded METAR 2020/08/11 00:52 UTC NOAA

ALBUQUERQUE INTERNATIONAL AIRPORT, NM, United States (KABQ) 35-02N 106-36W 1618M
Aug 10, 2020 - 08:52 PM EDT / 2020.08.11 0052 UTC
Wind: from the NW (320 degrees) at 6 MPH (5 KT):0
Visibility: 10 mile(s):0
Sky conditions: mostly cloudy
Temperature: 93.9 F (34.4 C)
Dew Point: 33.1 F (0.6 C)
Relative Humidity: 11%
Pressure (altimeter): 30.08 in. Hg (1018 hPa)
ob: KABQ 110052Z 32005KT 10SM BKN140 34/01 A3008 RMK AO2 SLP087 T03440006
cycle: 1

Station Type Date Time Source
KABQ TAF 2020/08/10 18:22 UTC NOAA

TAF KABQ 101720Z 1018/1118 VRB05KT P6SM SCT150
FM102000 28008KT P6SM BKN150
FM110300 VRB05KT P6SM SCT150
FM111000 09008KT P6SM FEW150
FM111600 29007KT P6SM FEW150

Example: see airport list